Arthur, ND (58006)

2:14 AM CDT on April 26, 2017 (GMT -0500)
PFS Hunter | | Change Station
Active Advisory: Winter Weather Advisory

Elev 974 ft 47.15 °N, 97.21 °W | Updated 3 seconds ago

Overcast
Overcast
29.7 °F
Feels Like 15 °F
N
29.8
Wind Variable Wind from NE
Gusts 34.0 mph

Today
High -- | Low -- °F
--% Chance of Precip.
Yesterday
High -- | Low -- °F
Precip. -- in
Pressure 29.81 in
Visibility 8.0 miles
Clouds Overcast 1300 ft
Windchill 15 °F
Dew Point 28 °F
Humidity 92%
Rainfall 0.00 in
Snow Depth Not available.
6:20 AM 8:33 PM
Waning Crescent, 0% visible
METAR KFAR 260653Z AUTO 02015G25KT 8SM -FZRA OVC013 00/M02 A2977 RMK AO2 RAE0557UPB08E34FZRAB34 SLP092 P0000 I1001 T00001017
Pressure 29.81 in
Visibility 8.0 miles
Clouds Overcast 1300 ft
Windchill 15 °F
Dew Point 28 °F
Humidity 92%
Rainfall 0.00 in
Snow Depth Not available.
6:20 AM 8:33 PM
Waning Crescent, 0% visible
METAR KFAR 260653Z AUTO 02015G25KT 8SM -FZRA OVC013 00/M02 A2977 RMK AO2 RAE0557UPB08E34FZRAB34 SLP092 P0000 I1001 T00001017

Get Your Daily Forecast Email!

Thanks for signing up!

Be on the lookout for a verification email in your inbox.

You'll start receiving severe weather alerts in your inbox..

×

10-Day Weather Forecast

Almanac

Astronomy

Apr. 26, 2017 Rise Set
Actual Time
Civil Twilight
Nautical Twilight
Astronomical Twilight
Moon
Length of Visible Light
Length of Day
Tomorrow will be .
, % of the Moon is Illuminated

Today's Extremes

State Highs State Lows

Community

WunderPhotos

WunderBlog® & News

Nearby

Air Quality

  Air Quality AQ Index Pollutant
Not available.

Snow Depth

Station Depth Elevation

Earthquake Activity

City Distance Mag. Time & Date
Minimum magnitude displayed is 2.5.

Coastal Water Temperatures

Place Temperature

Stations

Nearby Weather Stations

Station Location Temp. Windchill Dew Point Humidity Wind Precip. Elev Updated Type
                   

Watches & Warnings

Winter Weather Advisory
Issued: 9:38 PM CDT Apr. 25, 2017 – National Weather Service

... Winter Weather Advisory in effect until 7 PM CDT Wednesday...

The National Weather Service in Grand Forks has issued a Winter
Weather Advisory for snow, which is in effect until 7 PM CDT
Wednesday.

* Timing... snow will develop tonight. A brief wintry mix is
possible.

* Snow and accumulations... 3 to 5 inches.

* Winds / visibilities... look for reduced visibilities at times.

* Impacts... plan on slippery Road conditions... including during
the morning commute on Wednesday.

Precautionary/preparedness actions...

A Winter Weather Advisory means that periods of snow, sleet or
freezing rain will cause travel difficulties. Be prepared for
slippery roads and limited visibilities, and use caution while
driving. The latest Road conditions for the state you are calling
from can be obtained by calling 5 1 1.